LPMAGCFV

Guest
Details From LPMA - Madeira
To GCFV - Fuerteventura
Flight Number -
Tags Generated
Created
Modified
Stats Distance 297 nm / 550 km
Max Altitude 0 ft / 0 m
Waypoints 3
Social Downloads 2
Likes 0
Share VATSIM

Download

Looking for another format? Having issues loading an existing format? Contact us
Advertisement - Login to hide

Notes

Generated

Route

LPMA FTV GCFV

ID Type Via Altitude Latitude Longitude Leg Dist Tot Dist Heading (true) Name
O LPMA APT - 0 ft / 0 m 32.68900˚ -16.78409˚ - 0 nm - -
FTV VOR - 0 ft / 0 m 28.43078˚ -13.86450˚ 296 nm 296 nm 149° / 150° FUERTEVENTURA VOR-DME
O GCFV APT - 0 ft / 0 m 28.43299˚ -13.86439˚ 0 nm 297 nm 2° / 2° -

Altitude Profile

Advertisement - Login to hide

Weather


0- 5 10 15 20 25 30 35+ Temperature / ° C

Clouds and Precipitation
Forecast for 2017-12-15 18:00 UTC. Updated an hour ago

Ground ~20,000 ft ~40,000 ft Winds

LPMA

Details ICAO LPMA (FNC)
Name Madeira
Region Portugal
Timezone Atlantic/Madeira (UTC+0.0)
Stats Elevation 192 ft / 59 m (AMSL)
Location 32.697704° -16.774449°
Runways 1
Magnetic Variation 4.981° W

METAR

LPMA 151430Z 20007KT 170V230 9999 SCT013 20/16 Q1024

Decode

TAF

TAF LPMA 151110Z 1512/1612 VRB05KT 9999 SCT015 TEMPO 1512/1612 SCT013 BKN060 PROB40 TEMPO 1512/1612 6000 -RA BKN013 BECMG 1514/1517 35010KT

Decode

Departure Runways

ID Width Length Bearing (true) Bearing (mag) Surface Threshold Offset Overrun Length
05 141 ft / 43 m 8,683 ft / 2,647 m 42.98° 47.96° Asphalt 472 ft / 144 m 0 ft / 0 m
23 141 ft / 43 m 8,683 ft / 2,647 m 222.99° 227.97° Asphalt 466 ft / 142 m 0 ft / 0 m

GCFV

Details ICAO GCFV (FUE)
Name Fuerteventura
Region Canary Islands
Timezone Atlantic/Canary (UTC+0.0)
Stats Elevation 85 ft / 26 m (AMSL)
Location 28.447882° -13.864892°
Runways 2
Magnetic Variation 4.098° W

METAR

GCFV 151430Z 04012KT 9999 SCT038 21/15 Q1022

Decode

TAF

TAF GCFV 151400Z 1515/1615 04013KT 9999 SCT025 TX22/1614Z TN17/1606Z BECMG 1516/1518 34005KT

Decode

Destination Runways

ID Width Length Bearing (true) Bearing (mag) Surface Threshold Offset Overrun Length
01L 148 ft / 45 m 5,433 ft / 1,656 m 1.67° 5.77° Asphalt 0 ft / 0 m 984 ft / 300 m
01R 148 ft / 45 m 7,905 ft / 2,409 m 1.66° 5.76° Asphalt 0 ft / 0 m 3,281 ft / 1,000 m
19L 148 ft / 45 m 7,905 ft / 2,409 m 181.66° 185.76° Asphalt 0 ft / 0 m 197 ft / 60 m
19R 148 ft / 45 m 5,433 ft / 1,656 m 181.67° 185.77° Asphalt 0 ft / 0 m 820 ft / 250 m

Approach Navaids

Runway Type Ident Frequency Range Bearing (true) Bearing (mag) Slope Elevation
01R Localiser IFV 109.50 MHz 18 nm / 33 km 1.66° 5.76° - 64 ft / 20 m (AMSL)
01R Glidescope IFV 109.50 MHz 10 nm / 19 km 1.66° 5.76° 3.00° 85 ft / 26 m (AMSL)
01R DME IFV 109.50 MHz 18 nm / 33 km - - - 85 ft / 26 m (AMSL)

Popular Alternatives